createdAt,value
2018-12-11T00:00:44.308Z,8.78
2018-12-11T00:03:12.478Z,8.90
2018-12-11T00:05:40.619Z,8.55
2018-12-11T00:08:08.948Z,8.58
2018-12-11T00:10:37.482Z,8.03
2018-12-11T00:13:05.998Z,8.23
2018-12-11T00:15:34.386Z,8.43
2018-12-11T00:18:02.550Z,8.35
2018-12-11T00:20:31.394Z,7.80
2018-12-11T00:23:00.346Z,8.13
2018-12-11T00:25:28.688Z,7.53
2018-12-11T00:27:57.051Z,8.50
2018-12-11T00:30:25.246Z,8.60
2018-12-11T00:32:53.395Z,7.60
2018-12-11T00:35:21.569Z,7.60
2018-12-11T00:37:49.758Z,7.60
2018-12-11T00:40:18.246Z,7.92
2018-12-11T00:42:46.398Z,8.20
2018-12-11T00:45:14.631Z,7.30
2018-12-11T00:47:42.949Z,7.70
2018-12-11T00:50:11.067Z,7.28
2018-12-11T00:52:39.307Z,6.77
2018-12-11T00:55:07.942Z,7.30
2018-12-11T00:57:36.531Z,7.87
2018-12-11T01:00:07.205Z,7.00
2018-12-11T01:02:35.574Z,6.55
2018-12-11T01:05:04.975Z,6.22
2018-12-11T01:07:33.207Z,6.12
2018-12-11T01:10:03.387Z,6.70
2018-12-11T01:12:31.890Z,7.67
2018-12-11T01:15:00.023Z,6.00
2018-12-11T01:17:28.212Z,6.20
2018-12-11T01:19:57.034Z,6.00
2018-12-11T01:22:25.294Z,7.40
2018-12-11T01:24:54.077Z,5.40
2018-12-11T01:27:22.247Z,6.70
2018-12-11T01:29:50.405Z,6.27
2018-12-11T01:32:19.040Z,6.50
2018-12-11T01:34:47.258Z,6.40
2018-12-11T01:37:15.344Z,6.20
2018-12-11T01:39:43.787Z,6.10
2018-12-11T01:42:12.111Z,6.40
2018-12-11T01:44:41.036Z,6.10
2018-12-11T01:47:09.279Z,6.17
2018-12-11T01:49:37.534Z,6.40
2018-12-11T01:52:05.617Z,7.15
2018-12-11T01:54:33.780Z,6.25
2018-12-11T01:57:01.861Z,6.22
2018-12-11T01:59:30.031Z,5.97
2018-12-11T02:01:58.090Z,5.55
2018-12-11T02:04:26.285Z,5.90
2018-12-11T02:06:54.419Z,6.37
2018-12-11T02:09:22.614Z,6.62
2018-12-11T02:11:50.895Z,5.92
2018-12-11T02:14:19.395Z,5.70
2018-12-11T02:16:47.536Z,5.75
2018-12-11T02:19:15.718Z,5.70
2018-12-11T02:21:44.090Z,6.10
2018-12-11T02:24:12.290Z,5.22
2018-12-11T02:26:40.433Z,6.05
2018-12-11T02:29:08.642Z,4.97
2018-12-11T02:31:36.670Z,4.92
2018-12-11T02:34:04.986Z,4.83
2018-12-11T02:36:33.168Z,4.92
2018-12-11T02:39:01.321Z,4.90
2018-12-11T02:41:29.371Z,4.80
2018-12-11T02:43:57.667Z,5.00
2018-12-11T02:46:25.845Z,4.25
2018-12-11T02:48:53.886Z,4.60
2018-12-11T02:51:22.176Z,4.05
2018-12-11T02:53:50.293Z,4.60
2018-12-11T02:56:18.426Z,4.50
2018-12-11T02:58:46.453Z,4.40
2018-12-11T03:01:14.589Z,4.17
2018-12-11T03:03:42.818Z,4.15
2018-12-11T03:06:11.038Z,4.45
2018-12-11T03:08:39.056Z,3.90
2018-12-11T03:11:07.390Z,4.33
2018-12-11T03:13:35.528Z,4.20
2018-12-11T03:16:03.821Z,4.45
2018-12-11T03:18:32.058Z,4.92
2018-12-11T03:21:00.259Z,4.45
2018-12-11T03:23:28.309Z,4.50
2018-12-11T03:25:56.515Z,4.20
2018-12-11T03:28:24.785Z,5.17
2018-12-11T03:30:53.227Z,4.42
2018-12-11T03:33:21.329Z,4.55
2018-12-11T03:35:49.620Z,4.30
2018-12-11T03:38:17.887Z,4.58
2018-12-11T03:40:46.157Z,4.50
2018-12-11T03:43:15.110Z,4.12
2018-12-11T03:45:43.295Z,4.70
2018-12-11T03:48:11.390Z,4.50
2018-12-11T03:50:40.382Z,4.10
2018-12-11T03:53:08.686Z,4.95
2018-12-11T03:55:36.948Z,4.60
2018-12-11T03:58:05.223Z,4.10
2018-12-11T04:00:33.675Z,4.60
2018-12-11T04:03:02.657Z,4.28
2018-12-11T04:05:30.927Z,4.70
2018-12-11T04:07:59.239Z,4.70
2018-12-11T04:10:27.284Z,4.20
2018-12-11T04:12:55.484Z,5.05
2018-12-11T04:15:23.670Z,3.90
2018-12-11T04:17:51.827Z,3.90
2018-12-11T04:20:19.923Z,3.90
2018-12-11T04:22:48.158Z,3.60
2018-12-11T04:25:16.267Z,3.80
2018-12-11T04:27:44.423Z,3.60
2018-12-11T04:30:12.721Z,3.45
2018-12-11T04:32:40.879Z,4.90
2018-12-11T04:35:09.257Z,3.70
2018-12-11T04:37:37.312Z,3.67
2018-12-11T04:40:06.334Z,3.70
2018-12-11T04:42:34.364Z,3.42
2018-12-11T04:45:02.560Z,4.03
2018-12-11T04:47:30.693Z,3.57
2018-12-11T04:49:58.799Z,3.80
2018-12-11T04:52:26.954Z,3.58
2018-12-11T04:54:55.050Z,3.85
2018-12-11T04:57:23.145Z,4.78
2018-12-11T04:59:51.199Z,3.70
2018-12-11T05:02:19.243Z,4.72
2018-12-11T05:04:47.346Z,4.25
2018-12-11T05:07:15.690Z,4.00
2018-12-11T05:09:43.891Z,4.33
2018-12-11T05:12:12.097Z,4.47
2018-12-11T05:14:40.259Z,3.80
2018-12-11T05:17:08.382Z,3.92
2018-12-11T05:19:36.582Z,4.60
2018-12-11T05:22:05.583Z,4.30
2018-12-11T05:24:33.737Z,4.12
2018-12-11T05:27:02.021Z,4.30
2018-12-11T05:29:30.095Z,4.30
2018-12-11T05:31:58.293Z,4.85
2018-12-11T05:34:26.406Z,5.12
2018-12-11T05:36:54.686Z,5.30
2018-12-11T05:39:22.779Z,5.45
2018-12-11T05:41:51.179Z,4.50
2018-12-11T05:44:19.320Z,4.25
2018-12-11T05:46:47.601Z,4.62
2018-12-11T05:49:15.785Z,4.53
2018-12-11T05:51:43.859Z,4.67
2018-12-11T05:54:12.115Z,4.62
2018-12-11T05:56:40.208Z,4.50
2018-12-11T05:59:08.372Z,4.30
2018-12-11T06:01:36.432Z,4.27
2018-12-11T06:04:04.520Z,4.20
2018-12-11T06:06:32.535Z,3.95
2018-12-11T06:09:00.658Z,4.08
2018-12-11T06:11:28.994Z,4.20
2018-12-11T06:13:57.107Z,4.20
2018-12-11T06:16:25.593Z,3.90
2018-12-11T06:18:53.873Z,4.10
2018-12-11T06:21:21.913Z,4.08
2018-12-11T06:23:49.988Z,3.98
2018-12-11T06:26:18.040Z,3.60
2018-12-11T06:28:47.159Z,4.05
2018-12-11T06:31:15.361Z,3.98
2018-12-11T06:33:43.518Z,4.20
2018-12-11T06:36:11.899Z,3.92
2018-12-11T06:38:40.161Z,4.75
2018-12-11T06:41:08.912Z,4.85
2018-12-11T06:43:37.027Z,3.83
2018-12-11T06:46:05.188Z,3.80
2018-12-11T06:48:33.355Z,4.00
2018-12-11T06:51:01.555Z,4.22
2018-12-11T06:53:30.412Z,4.22
2018-12-11T06:55:58.516Z,4.83
2018-12-11T06:58:26.546Z,4.20
2018-12-11T07:00:54.663Z,4.30
2018-12-11T07:03:22.813Z,4.80
2018-12-11T07:05:51.022Z,4.60
2018-12-11T07:08:19.042Z,5.17
2018-12-11T07:10:47.906Z,5.75
2018-12-11T07:13:16.225Z,5.10
2018-12-11T07:15:44.309Z,4.83
2018-12-11T07:18:12.469Z,5.15
2018-12-11T07:20:40.740Z,5.60
2018-12-11T07:23:09.514Z,5.78
2018-12-11T07:25:37.625Z,5.10
2018-12-11T07:28:05.671Z,5.25
2018-12-11T07:30:33.838Z,4.97
2018-12-11T07:33:02.100Z,5.00
2018-12-11T07:35:30.209Z,5.30
2018-12-11T07:37:58.258Z,4.70
2018-12-11T07:40:26.419Z,4.40
2018-12-11T07:42:54.606Z,4.92
2018-12-11T07:45:26.195Z,5.03
2018-12-11T07:47:54.340Z,4.43
2018-12-11T07:50:22.483Z,3.70
2018-12-11T07:52:50.854Z,3.93
2018-12-11T07:55:19.142Z,3.60
2018-12-11T07:57:47.259Z,4.50
2018-12-11T08:00:15.403Z,4.10
2018-12-11T08:02:43.682Z,3.65
2018-12-11T08:05:12.042Z,3.27
2018-12-11T08:07:40.463Z,3.55
2018-12-11T08:10:09.549Z,4.00
2018-12-11T08:12:38.661Z,4.10
2018-12-11T08:15:07.100Z,3.55
2018-12-11T08:17:35.502Z,3.70
2018-12-11T08:20:04.342Z,3.90
2018-12-11T08:22:32.462Z,3.90
2018-12-11T08:25:01.635Z,4.08
2018-12-11T08:27:29.895Z,4.33
2018-12-11T08:29:58.370Z,4.35
2018-12-11T08:32:26.770Z,4.65
2018-12-11T08:34:54.952Z,4.30
2018-12-11T08:37:23.098Z,3.75
2018-12-11T08:39:51.295Z,4.08
2018-12-11T08:42:19.533Z,3.90
2018-12-11T08:44:51.167Z,4.00
2018-12-11T08:47:17.942Z,3.70
2018-12-11T08:49:46.664Z,4.10
2018-12-11T08:52:14.725Z,3.63
2018-12-11T08:54:42.759Z,3.83
2018-12-11T08:57:10.967Z,4.20
2018-12-11T08:59:39.227Z,3.70
2018-12-11T09:02:07.310Z,3.60
2018-12-11T09:04:35.499Z,3.17
2018-12-11T09:07:03.741Z,3.45
2018-12-11T09:09:31.859Z,3.55
2018-12-11T09:12:00.108Z,4.45
2018-12-11T09:14:28.379Z,3.70
2018-12-11T09:16:57.062Z,3.60
2018-12-11T09:19:25.268Z,3.70
2018-12-11T09:21:54.143Z,4.10
2018-12-11T09:24:23.276Z,3.47
2018-12-11T09:26:51.379Z,3.58
2018-12-11T09:29:19.483Z,3.95
2018-12-11T09:31:47.636Z,3.43
2018-12-11T09:34:15.829Z,3.10
2018-12-11T09:36:43.981Z,5.10
2018-12-11T09:39:12.179Z,3.50
2018-12-11T09:41:40.326Z,3.45
2018-12-11T09:44:08.448Z,3.70
2018-12-11T09:46:36.475Z,3.87
2018-12-11T09:49:05.181Z,3.80
2018-12-11T09:51:33.363Z,3.58
2018-12-11T09:54:01.606Z,3.90
2018-12-11T09:56:30.322Z,3.55
2018-12-11T09:58:58.346Z,3.83
2018-12-11T10:01:26.540Z,3.52
2018-12-11T10:03:54.685Z,3.70
2018-12-11T10:06:23.307Z,3.30
2018-12-11T10:08:54.128Z,3.90
2018-12-11T10:11:22.306Z,3.85
2018-12-11T10:13:50.474Z,3.30
2018-12-11T10:16:18.686Z,3.77
2018-12-11T10:18:46.805Z,3.75
2018-12-11T10:21:15.022Z,3.80
2018-12-11T10:23:43.396Z,3.90
2018-12-11T10:26:11.689Z,3.80
2018-12-11T10:28:39.712Z,3.43
2018-12-11T10:31:08.028Z,3.50
2018-12-11T10:33:36.049Z,4.30
2018-12-11T10:36:04.356Z,4.50
2018-12-11T10:38:32.514Z,4.50
2018-12-11T10:41:00.682Z,3.50
2018-12-11T10:43:28.783Z,4.30
2018-12-11T10:45:57.123Z,3.70
2018-12-11T10:48:25.250Z,3.80
2018-12-11T10:50:53.506Z,4.08
2018-12-11T10:53:21.670Z,3.80
2018-12-11T10:55:49.833Z,4.10
2018-12-11T10:58:17.920Z,4.80
2018-12-11T11:00:50.498Z,4.60
2018-12-11T11:03:18.704Z,4.13
2018-12-11T11:05:46.706Z,3.55
2018-12-11T11:08:14.828Z,4.12
2018-12-11T11:10:42.851Z,3.72
2018-12-11T11:13:11.060Z,4.78
2018-12-11T11:15:39.210Z,4.00
2018-12-11T11:18:07.607Z,4.20
2018-12-11T11:20:35.850Z,4.70
2018-12-11T11:23:04.042Z,4.95
2018-12-11T11:25:32.245Z,4.20
2018-12-11T11:28:00.887Z,4.62
2018-12-11T11:30:29.093Z,3.95
2018-12-11T11:32:57.338Z,3.90
2018-12-11T11:35:25.912Z,4.53
2018-12-11T11:37:54.110Z,4.30
2018-12-11T11:40:22.187Z,4.20
2018-12-11T11:42:50.339Z,3.02
2018-12-11T11:45:18.435Z,3.07
2018-12-11T11:47:46.690Z,3.35
2018-12-11T11:50:16.836Z,3.10
2018-12-11T11:52:44.857Z,3.80
2018-12-11T11:55:13.899Z,3.60
2018-12-11T11:57:42.062Z,4.10
2018-12-11T12:00:13.410Z,4.80
2018-12-11T12:02:41.472Z,4.70
2018-12-11T12:05:09.651Z,4.40
2018-12-11T12:07:37.838Z,5.00
2018-12-11T12:10:09.011Z,5.50
2018-12-11T12:12:37.049Z,4.50
2018-12-11T12:15:06.059Z,4.70
2018-12-11T12:17:34.099Z,5.20
2018-12-11T12:20:02.242Z,4.47
2018-12-11T12:22:31.004Z,5.00
2018-12-11T12:24:59.007Z,4.60
2018-12-11T12:27:27.175Z,5.27
2018-12-11T12:29:56.222Z,4.80
2018-12-11T12:32:24.678Z,4.80
2018-12-11T12:34:52.718Z,5.50
2018-12-11T12:37:20.982Z,4.85
2018-12-11T12:39:49.191Z,5.00
2018-12-11T12:42:17.361Z,4.72
2018-12-11T12:44:45.741Z,5.10
2018-12-11T12:47:13.943Z,5.60
2018-12-11T12:49:42.180Z,4.87
2018-12-11T12:52:10.365Z,5.20
2018-12-11T12:54:38.498Z,4.78
2018-12-11T12:57:06.817Z,4.40
2018-12-11T12:59:35.090Z,4.50
2018-12-11T13:02:03.128Z,5.00
2018-12-11T13:04:31.335Z,5.03
2018-12-11T13:06:59.694Z,5.42
2018-12-11T13:09:27.890Z,5.80
2018-12-11T13:11:55.930Z,4.80
2018-12-11T13:14:24.136Z,5.30
2018-12-11T13:16:52.203Z,4.80
2018-12-11T13:19:20.279Z,4.95
2018-12-11T13:21:48.434Z,4.80
2018-12-11T13:24:16.630Z,6.05
2018-12-11T13:26:44.659Z,5.73
2018-12-11T13:29:12.775Z,5.10
2018-12-11T13:31:40.953Z,5.92
2018-12-11T13:34:09.046Z,5.70
2018-12-11T13:36:37.263Z,5.65
2018-12-11T13:39:07.094Z,5.62
2018-12-11T13:41:35.139Z,6.15
2018-12-11T13:44:03.577Z,5.90
2018-12-11T13:46:32.378Z,5.15
2018-12-11T13:49:00.602Z,5.70
2018-12-11T13:51:28.787Z,4.80
2018-12-11T13:53:57.105Z,5.00
2018-12-11T13:56:25.221Z,5.12
2018-12-11T13:58:53.267Z,5.30
2018-12-11T14:01:21.414Z,5.25
2018-12-11T14:03:49.520Z,4.75
2018-12-11T14:06:18.371Z,4.60
2018-12-11T14:08:46.471Z,4.95
2018-12-11T14:11:14.691Z,5.10
2018-12-11T14:13:42.806Z,4.53
2018-12-11T14:16:10.924Z,4.80
2018-12-11T14:18:39.060Z,4.50
2018-12-11T14:21:07.293Z,5.33
2018-12-11T14:23:35.319Z,4.80
2018-12-11T14:26:03.403Z,5.30
2018-12-11T14:28:31.446Z,4.70
2018-12-11T14:30:59.642Z,5.05
2018-12-11T14:33:27.719Z,5.80
2018-12-11T14:35:56.487Z,5.72
2018-12-11T14:38:24.727Z,5.80
2018-12-11T14:40:52.826Z,6.33
2018-12-11T14:43:21.042Z,6.40
2018-12-11T14:45:49.202Z,6.70
2018-12-11T14:48:17.363Z,7.22
2018-12-11T14:50:45.611Z,8.10
2018-12-11T14:53:13.950Z,7.95
2018-12-11T14:55:41.982Z,8.45
2018-12-11T14:58:10.290Z,8.45
2018-12-11T15:00:38.427Z,9.28
2018-12-11T15:03:06.667Z,8.10
2018-12-11T15:05:34.771Z,7.33
2018-12-11T15:08:03.008Z,7.17
2018-12-11T15:10:31.666Z,7.53
2018-12-11T15:12:59.990Z,8.00
2018-12-11T15:15:28.191Z,7.07
2018-12-11T15:17:56.306Z,7.03
2018-12-11T15:20:24.361Z,8.05
2018-12-11T15:22:52.500Z,5.97
2018-12-11T15:25:20.687Z,6.70
2018-12-11T15:27:48.853Z,6.53
2018-12-11T15:30:17.027Z,7.05
2018-12-11T15:32:45.087Z,7.20
2018-12-11T15:35:13.197Z,7.60
2018-12-11T15:37:41.551Z,7.58
2018-12-11T15:40:09.637Z,7.40
2018-12-11T15:42:37.869Z,7.80
2018-12-11T15:45:06.272Z,7.30
2018-12-11T15:47:34.446Z,7.78
2018-12-11T15:50:02.800Z,7.75
2018-12-11T15:52:31.210Z,8.25
2018-12-11T15:54:59.583Z,8.40
2018-12-11T15:57:27.636Z,7.78
2018-12-11T15:59:56.037Z,8.40
2018-12-11T16:02:24.399Z,8.00
2018-12-11T16:04:52.596Z,8.40
2018-12-11T16:07:20.970Z,8.78
2018-12-11T16:09:49.543Z,9.08
2018-12-11T16:12:18.570Z,8.73
2018-12-11T16:14:47.822Z,8.20
2018-12-11T16:17:16.029Z,8.78
2018-12-11T16:19:44.158Z,8.10
2018-12-11T16:22:12.271Z,8.00
2018-12-11T16:24:40.616Z,7.00
2018-12-11T16:27:08.721Z,7.08
2018-12-11T16:31:01.257Z,6.50
2018-12-11T16:33:29.337Z,7.10
2018-12-11T16:35:57.390Z,7.00
2018-12-11T16:38:25.686Z,7.12
2018-12-11T16:40:53.838Z,7.60
2018-12-11T16:43:22.145Z,7.35
2018-12-11T16:45:50.164Z,7.40
2018-12-11T16:48:18.279Z,7.72
2018-12-11T16:50:46.310Z,8.25
2018-12-11T16:53:14.416Z,7.80
2018-12-11T16:55:42.428Z,8.13
2018-12-11T16:58:10.577Z,8.93
2018-12-11T17:00:38.641Z,8.73
2018-12-11T17:03:06.700Z,7.65
2018-12-11T17:05:35.179Z,7.70
2018-12-11T17:08:04.039Z,8.08
2018-12-11T17:10:32.266Z,8.25
2018-12-11T17:13:00.316Z,7.85
2018-12-11T17:15:28.917Z,8.13
2018-12-11T17:17:57.243Z,8.40
2018-12-11T17:20:26.063Z,8.20
2018-12-11T17:22:54.247Z,8.45
2018-12-11T17:25:22.411Z,8.50
2018-12-11T17:27:50.574Z,8.65
2018-12-11T17:30:18.646Z,8.83
2018-12-11T17:32:46.799Z,8.28
2018-12-11T17:35:15.007Z,8.50
2018-12-11T17:37:43.081Z,8.10
2018-12-11T17:40:11.311Z,8.70
2018-12-11T17:42:39.305Z,9.18
2018-12-11T17:45:08.130Z,8.98
2018-12-11T17:47:36.184Z,8.10
2018-12-11T17:50:05.597Z,8.08
2018-12-11T17:52:34.508Z,11.57
2018-12-11T17:55:02.528Z,9.40
2018-12-11T17:57:30.665Z,8.75
2018-12-11T17:59:59.381Z,10.48
2018-12-11T18:02:31.547Z,8.13
2018-12-11T18:04:59.629Z,9.60
2018-12-11T18:07:27.776Z,8.50
2018-12-11T18:09:55.872Z,7.97
2018-12-11T18:12:24.038Z,8.93
2018-12-11T18:14:52.181Z,7.75
2018-12-11T18:17:20.917Z,7.67
2018-12-11T18:19:50.017Z,7.80
2018-12-11T18:22:18.302Z,8.15
2018-12-11T18:24:48.435Z,8.33
2018-12-11T18:27:16.574Z,8.55
2018-12-11T18:29:44.713Z,7.75
2018-12-11T18:32:12.868Z,8.40
2018-12-11T18:34:48.691Z,8.70
2018-12-11T18:37:16.761Z,8.80
2018-12-11T18:39:47.003Z,9.10
2018-12-11T18:42:15.754Z,8.50
2018-12-11T18:44:45.442Z,8.25
2018-12-11T18:47:14.147Z,8.90
2018-12-11T18:49:42.419Z,8.93
2018-12-11T18:52:10.498Z,9.35
2018-12-11T18:54:42.891Z,8.85
2018-12-11T18:57:12.512Z,9.35
2018-12-11T18:59:40.722Z,10.03
2018-12-11T19:02:11.814Z,10.00
2018-12-11T19:04:40.139Z,10.27
2018-12-11T19:07:08.918Z,10.40
2018-12-11T19:09:37.018Z,10.55
2018-12-11T19:12:06.019Z,9.78
2018-12-11T19:14:34.239Z,10.55
2018-12-11T19:17:04.407Z,10.40
2018-12-11T19:19:33.197Z,10.43
2018-12-11T19:22:03.078Z,9.87
2018-12-11T19:24:46.218Z,11.18
2018-12-11T19:27:15.600Z,10.23
2018-12-11T19:29:46.693Z,11.50
2018-12-11T19:32:18.237Z,10.53
2018-12-11T19:34:48.442Z,11.55
2018-12-11T19:37:17.998Z,11.45
2018-12-11T19:39:48.080Z,12.00
2018-12-11T19:42:17.887Z,11.43
2018-12-11T19:44:46.995Z,11.35
2018-12-11T19:47:15.426Z,12.20
2018-12-11T19:49:43.735Z,11.43
2018-12-11T19:52:12.481Z,11.55
2018-12-11T19:54:42.313Z,12.30
2018-12-11T19:57:12.530Z,12.00
2018-12-11T19:59:40.746Z,11.93
2018-12-11T20:02:09.857Z,12.00
2018-12-11T20:04:37.898Z,12.50
2018-12-11T20:07:06.058Z,12.00
2018-12-11T20:09:37.646Z,12.85
2018-12-11T20:12:07.842Z,12.55
2018-12-11T20:14:41.018Z,12.40
2018-12-11T20:17:09.111Z,12.10
2018-12-11T20:19:38.120Z,10.50
2018-12-11T20:22:07.664Z,10.23
2018-12-11T20:24:40.167Z,11.12
2018-12-11T20:27:08.583Z,10.82
2018-12-11T20:29:37.471Z,10.83
2018-12-11T20:32:05.512Z,10.80
2018-12-11T20:34:35.900Z,11.33
2018-12-11T20:37:05.274Z,11.20
2018-12-11T20:39:33.416Z,11.20
2018-12-11T20:42:02.619Z,10.57
2018-12-11T20:44:30.651Z,10.55
2018-12-11T20:47:00.419Z,10.95
2018-12-11T20:49:28.442Z,11.00
2018-12-11T20:51:57.575Z,10.45
2018-12-11T20:54:25.632Z,9.80
2018-12-11T20:56:54.457Z,11.03
2018-12-11T20:59:24.497Z,10.90
2018-12-11T21:01:54.930Z,12.00
2018-12-11T21:04:23.851Z,12.53
2018-12-11T21:06:52.765Z,11.85
2018-12-11T21:09:20.907Z,10.80
2018-12-11T21:11:49.183Z,12.40
2018-12-11T21:14:17.432Z,11.50
2018-12-11T21:16:45.770Z,12.70
2018-12-11T21:19:13.954Z,12.40
2018-12-11T21:21:42.465Z,12.63
2018-12-11T21:24:11.003Z,10.98
2018-12-11T21:26:39.439Z,11.53
2018-12-11T21:29:08.221Z,11.38
2018-12-11T21:31:36.506Z,11.65
2018-12-11T21:34:04.883Z,11.75
2018-12-11T21:36:33.076Z,11.73
2018-12-11T21:39:01.146Z,12.60
2018-12-11T21:41:29.297Z,11.75
2018-12-11T21:43:58.040Z,12.80
2018-12-11T21:46:26.300Z,12.80
2018-12-11T21:48:54.311Z,11.93
2018-12-11T21:51:22.510Z,12.03
2018-12-11T21:53:50.559Z,11.65
2018-12-11T21:56:18.868Z,12.37
2018-12-11T21:58:46.906Z,11.88
2018-12-11T22:01:15.028Z,12.30
2018-12-11T22:03:43.502Z,12.60
2018-12-11T22:06:12.236Z,12.80
2018-12-11T22:08:40.326Z,13.03
2018-12-11T22:11:08.710Z,12.20
2018-12-11T22:13:36.876Z,12.47
2018-12-11T22:16:04.986Z,11.33
2018-12-11T22:18:33.023Z,11.37
2018-12-11T22:21:01.261Z,10.50
2018-12-11T22:23:29.327Z,11.48
2018-12-11T22:25:57.763Z,12.37
2018-12-11T22:28:26.017Z,11.57
2018-12-11T22:30:54.117Z,11.50
2018-12-11T22:33:22.281Z,11.15
2018-12-11T22:35:50.447Z,10.70
2018-12-11T22:38:18.854Z,11.33
2018-12-11T22:40:46.878Z,10.48
2018-12-11T22:43:15.706Z,9.90
2018-12-11T22:45:43.846Z,9.80
2018-12-11T22:48:12.046Z,9.80
2018-12-11T22:50:40.275Z,9.85
2018-12-11T22:53:08.626Z,9.10
2018-12-11T22:55:37.042Z,9.55
2018-12-11T22:58:05.191Z,10.10
2018-12-11T23:00:34.026Z,10.40
2018-12-11T23:03:02.374Z,10.68
2018-12-11T23:05:30.641Z,10.30
2018-12-11T23:07:58.956Z,10.45
2018-12-11T23:10:27.027Z,10.03
2018-12-11T23:12:55.218Z,9.43
2018-12-11T23:15:23.351Z,10.03
2018-12-11T23:17:51.547Z,10.30
2018-12-11T23:20:19.711Z,10.40
2018-12-11T23:22:48.069Z,10.32
2018-12-11T23:25:16.426Z,9.78
2018-12-11T23:27:44.731Z,11.03
2018-12-11T23:30:13.145Z,10.20
2018-12-11T23:32:41.300Z,10.20
2018-12-11T23:35:09.853Z,10.50
2018-12-11T23:37:38.157Z,10.05
2018-12-11T23:40:06.681Z,10.30
2018-12-11T23:42:34.798Z,11.12
2018-12-11T23:45:03.211Z,10.82
2018-12-11T23:47:32.066Z,10.70
2018-12-11T23:50:00.221Z,10.98
2018-12-11T23:52:28.397Z,10.30
2018-12-11T23:54:56.596Z,10.70
2018-12-11T23:57:24.860Z,10.65
2018-12-11T23:59:52.954Z,11.25
